createdAt,value
2018-07-17T00:00:57.784Z,18.30
2018-07-17T00:06:00.852Z,18.20
2018-07-17T00:11:03.987Z,18.20
2018-07-17T00:16:07.069Z,18.10
2018-07-17T00:21:10.580Z,18.10
2018-07-17T00:26:13.641Z,18.20
2018-07-17T00:31:16.697Z,18.00
2018-07-17T00:36:19.741Z,17.90
2018-07-17T00:41:22.797Z,17.80
2018-07-17T00:46:25.857Z,17.80
2018-07-17T00:51:28.910Z,17.80
2018-07-17T00:56:32.025Z,17.70
2018-07-17T01:01:40.601Z,17.60
2018-07-17T01:06:49.101Z,17.40
2018-07-17T01:11:57.647Z,17.20
2018-07-17T01:17:00.700Z,17.00
2018-07-17T01:22:03.754Z,17.00
2018-07-17T01:27:06.801Z,16.90
2018-07-17T01:32:09.860Z,16.80
2018-07-17T01:37:12.928Z,16.70
2018-07-17T01:42:15.998Z,16.60
2018-07-17T01:47:19.068Z,16.50
2018-07-17T01:52:22.130Z,16.40
2018-07-17T01:57:25.204Z,16.30
2018-07-17T02:02:28.302Z,16.20
2018-07-17T02:07:31.369Z,16.20
2018-07-17T02:12:34.437Z,16.10
2018-07-17T02:17:37.492Z,15.90
2018-07-17T02:22:40.561Z,15.80
2018-07-17T02:27:43.644Z,15.80
2018-07-17T02:32:46.694Z,15.80
2018-07-17T02:37:49.786Z,15.70
2018-07-17T02:42:52.865Z,15.60
2018-07-17T02:47:55.945Z,15.60
2018-07-17T02:52:59.020Z,15.60
2018-07-17T02:58:02.101Z,15.60
2018-07-17T03:03:05.263Z,15.50
2018-07-17T03:08:08.341Z,15.30
2018-07-17T03:13:11.398Z,15.30
2018-07-17T03:18:14.465Z,15.30
2018-07-17T03:23:17.537Z,15.30
2018-07-17T03:28:20.585Z,15.20
2018-07-17T03:33:23.662Z,15.10
2018-07-17T03:38:26.716Z,15.00
2018-07-17T03:43:29.773Z,14.80
2018-07-17T03:48:32.845Z,14.80
2018-07-17T03:53:35.913Z,14.90
2018-07-17T03:58:38.993Z,15.00
2018-07-17T04:03:42.086Z,14.90
2018-07-17T04:08:45.199Z,14.80
2018-07-17T04:13:48.212Z,14.80
2018-07-17T04:18:51.281Z,14.70
2018-07-17T04:23:54.341Z,14.80
2018-07-17T04:28:57.404Z,14.90
2018-07-17T04:34:00.482Z,15.10
2018-07-17T04:39:03.996Z,15.40
2018-07-17T04:44:07.251Z,15.60
2018-07-17T04:49:10.335Z,15.90
2018-07-17T04:54:13.409Z,16.20
2018-07-17T04:59:16.489Z,16.50
2018-07-17T05:04:19.557Z,16.90
2018-07-17T05:09:23.039Z,17.10
2018-07-17T05:14:26.238Z,17.40
2018-07-17T05:19:29.288Z,17.50
2018-07-17T05:24:32.389Z,17.80
2018-07-17T05:29:35.441Z,18.10
2018-07-17T05:34:38.489Z,18.40
2018-07-17T05:39:41.557Z,18.70
2018-07-17T05:44:44.598Z,19.10
2018-07-17T05:49:47.641Z,19.40
2018-07-17T05:54:50.681Z,19.70
2018-07-17T05:59:53.738Z,20.10
2018-07-17T06:04:56.776Z,20.40
2018-07-17T06:09:59.841Z,20.70
2018-07-17T06:15:02.897Z,21.00
2018-07-17T06:20:07.239Z,21.20
2018-07-17T06:25:10.610Z,21.40
2018-07-17T06:30:13.677Z,21.70
2018-07-17T06:35:16.740Z,21.90
2018-07-17T06:40:19.772Z,22.10
2018-07-17T06:45:22.857Z,22.40
2018-07-17T06:50:25.930Z,22.60
2018-07-17T06:55:28.948Z,22.80
2018-07-17T07:00:32.011Z,23.10
2018-07-17T07:05:35.161Z,23.30
2018-07-17T07:10:38.212Z,23.50
2018-07-17T07:15:41.272Z,23.70
2018-07-17T07:20:44.328Z,24.00
2018-07-17T07:25:47.381Z,24.10
2018-07-17T07:30:50.436Z,24.30
2018-07-17T07:35:53.480Z,24.40
2018-07-17T07:40:56.540Z,24.60
2018-07-17T07:45:59.596Z,24.80
2018-07-17T07:51:02.653Z,25.00
2018-07-17T07:56:05.949Z,25.20
2018-07-17T08:01:08.992Z,25.30
2018-07-17T08:06:12.053Z,25.60
2018-07-17T08:11:15.125Z,25.80
2018-07-17T08:16:18.261Z,26.00
2018-07-17T08:21:21.317Z,26.30
2018-07-17T08:26:24.368Z,26.40
2018-07-17T08:31:27.424Z,26.60
2018-07-17T08:36:30.485Z,26.80
2018-07-17T08:41:33.536Z,27.00
2018-07-17T08:46:36.600Z,27.20
2018-07-17T08:51:39.669Z,27.40
2018-07-17T08:56:42.716Z,27.60
2018-07-17T09:01:45.787Z,27.80
2018-07-17T09:06:48.864Z,27.90
2018-07-17T09:11:51.910Z,28.00
2018-07-17T09:16:54.961Z,28.00
2018-07-17T09:21:58.013Z,28.20
2018-07-17T09:27:01.065Z,28.20
2018-07-17T09:32:04.114Z,28.40
2018-07-17T09:37:07.175Z,28.50
2018-07-17T09:42:10.215Z,28.50
2018-07-17T09:47:13.274Z,28.60
2018-07-17T09:52:16.337Z,28.70
2018-07-17T09:57:19.393Z,28.80
2018-07-17T10:02:28.300Z,28.90
2018-07-17T10:07:31.345Z,29.10
2018-07-17T10:12:34.387Z,29.10
2018-07-17T10:17:37.426Z,29.10
2018-07-17T10:22:40.473Z,29.10
2018-07-17T10:27:43.521Z,29.10
2018-07-17T10:32:46.621Z,29.00
2018-07-17T10:37:49.703Z,29.10
2018-07-17T10:42:52.752Z,29.10
2018-07-17T10:47:55.922Z,29.20
2018-07-17T10:52:58.972Z,29.20
2018-07-17T10:58:02.044Z,29.30
2018-07-17T11:03:05.093Z,29.30
2018-07-17T11:08:08.144Z,29.30
2018-07-17T11:13:11.200Z,29.30
2018-07-17T11:18:14.236Z,29.40
2018-07-17T11:23:17.296Z,29.50
2018-07-17T11:28:20.328Z,29.60
2018-07-17T11:33:23.384Z,29.60
2018-07-17T11:38:26.480Z,29.60
2018-07-17T11:43:29.516Z,29.60
2018-07-17T11:48:32.567Z,29.60
2018-07-17T11:53:35.662Z,29.60
2018-07-17T11:58:38.700Z,29.70
2018-07-17T12:03:41.756Z,29.70
2018-07-17T12:08:45.622Z,29.60
2018-07-17T12:13:48.771Z,29.60
2018-07-17T12:18:51.831Z,29.70
2018-07-17T12:23:54.877Z,29.70
2018-07-17T12:28:57.925Z,29.70
2018-07-17T12:34:00.985Z,29.70
2018-07-17T12:39:05.114Z,29.60
2018-07-17T12:44:08.273Z,29.70
2018-07-17T12:49:11.324Z,29.60
2018-07-17T12:54:14.364Z,29.70
2018-07-17T12:59:17.422Z,29.70
2018-07-17T13:04:20.465Z,29.70
2018-07-17T13:09:23.656Z,29.80
2018-07-17T13:14:26.549Z,29.90
2018-07-17T13:19:29.604Z,29.90
2018-07-17T13:24:32.658Z,29.90
2018-07-17T13:29:35.704Z,29.90
2018-07-17T13:34:38.741Z,30.00
2018-07-17T13:39:41.788Z,30.10
2018-07-17T13:44:44.917Z,30.10
2018-07-17T13:49:47.936Z,30.10
2018-07-17T13:54:50.996Z,30.10
2018-07-17T13:59:54.118Z,30.20
2018-07-17T14:04:57.144Z,30.20
2018-07-17T14:10:00.192Z,30.20
2018-07-17T14:15:03.279Z,30.30
2018-07-17T14:20:06.335Z,30.30
2018-07-17T14:25:09.365Z,30.30
2018-07-17T14:30:12.484Z,30.40
2018-07-17T14:35:15.489Z,30.30
2018-07-17T14:40:18.561Z,30.40
2018-07-17T14:45:21.612Z,30.50
2018-07-17T14:50:24.664Z,30.50
2018-07-17T14:55:27.713Z,30.40
2018-07-17T15:00:30.747Z,30.40
2018-07-17T15:05:33.802Z,30.40
2018-07-17T15:10:36.853Z,30.50
2018-07-17T15:15:40.029Z,30.60
2018-07-17T15:20:42.932Z,30.50
2018-07-17T15:25:45.982Z,30.50
2018-07-17T15:30:49.025Z,30.40
2018-07-17T15:35:52.081Z,30.40
2018-07-17T15:40:55.133Z,30.30
2018-07-17T15:45:58.210Z,30.30
2018-07-17T15:51:01.292Z,30.20
2018-07-17T15:56:04.351Z,30.20
2018-07-17T16:01:07.409Z,30.20
2018-07-17T16:06:10.498Z,30.30
2018-07-17T16:11:13.501Z,30.30
2018-07-17T16:16:16.563Z,30.30
2018-07-17T16:21:19.629Z,30.10
2018-07-17T16:26:22.680Z,30.10
2018-07-17T16:31:25.736Z,30.00
2018-07-17T16:36:28.788Z,30.10
2018-07-17T16:41:31.848Z,30.10
2018-07-17T16:46:34.897Z,30.20
2018-07-17T16:51:37.976Z,30.20
2018-07-17T16:56:41.038Z,30.20
2018-07-17T17:01:44.088Z,30.20
2018-07-17T17:06:47.326Z,30.20
2018-07-17T17:11:50.376Z,30.20
2018-07-17T17:16:53.433Z,30.10
2018-07-17T17:21:56.497Z,30.10
2018-07-17T17:26:59.557Z,30.10
2018-07-17T17:32:02.622Z,30.00
2018-07-17T17:37:05.680Z,30.00
2018-07-17T17:42:08.727Z,30.00
2018-07-17T17:47:11.764Z,29.90
2018-07-17T17:52:14.829Z,29.80
2018-07-17T17:57:17.865Z,29.80
2018-07-17T18:02:20.914Z,29.70
2018-07-17T18:07:23.973Z,29.60
2018-07-17T18:12:27.029Z,29.50
2018-07-17T18:17:30.099Z,29.40
2018-07-17T18:22:33.149Z,29.20
2018-07-17T18:27:36.205Z,29.10
2018-07-17T18:32:39.277Z,29.00
2018-07-17T18:37:42.320Z,28.80
2018-07-17T18:42:45.364Z,28.70
2018-07-17T18:47:48.460Z,28.50
2018-07-17T18:52:51.500Z,28.30
2018-07-17T18:57:54.573Z,28.20
2018-07-17T19:02:57.629Z,28.00
2018-07-17T19:08:00.681Z,27.80
2018-07-17T19:13:03.733Z,27.60
2018-07-17T19:18:06.772Z,27.50
2018-07-17T19:23:09.833Z,27.30
2018-07-17T19:28:12.900Z,27.10
2018-07-17T19:33:15.959Z,26.90
2018-07-17T19:38:19.025Z,26.80
2018-07-17T19:43:22.077Z,26.60
2018-07-17T19:48:25.133Z,26.40
2018-07-17T19:53:28.172Z,26.30
2018-07-17T19:58:31.209Z,26.20
2018-07-17T20:03:34.268Z,26.10
2018-07-17T20:08:37.404Z,26.00
2018-07-17T20:13:40.409Z,25.90
2018-07-17T20:18:43.464Z,25.70
2018-07-17T20:23:46.501Z,25.70
2018-07-17T20:28:49.533Z,25.50
2018-07-17T20:33:52.653Z,25.30
2018-07-17T20:38:55.708Z,25.00
2018-07-17T20:43:58.764Z,24.80
2018-07-17T20:49:01.820Z,24.60
2018-07-17T20:54:04.877Z,24.50
2018-07-17T20:59:07.920Z,24.20
2018-07-17T21:04:10.984Z,24.10
2018-07-17T21:09:14.056Z,23.90
2018-07-17T21:14:17.084Z,23.80
2018-07-17T21:19:20.136Z,23.70
2018-07-17T21:24:23.193Z,23.60
2018-07-17T21:29:26.237Z,23.50
2018-07-17T21:34:29.276Z,23.40
2018-07-17T21:39:32.332Z,23.20
2018-07-17T21:44:35.364Z,23.10
2018-07-17T21:49:38.472Z,23.00
2018-07-17T21:54:41.513Z,22.90
2018-07-17T21:59:44.645Z,22.90
2018-07-17T22:04:47.705Z,22.80
2018-07-17T22:09:50.772Z,22.70
2018-07-17T22:14:53.812Z,22.70
2018-07-17T22:19:56.876Z,22.80
2018-07-17T22:24:59.938Z,22.70
2018-07-17T22:30:03.006Z,22.70
2018-07-17T22:35:06.136Z,22.70
2018-07-17T22:40:09.189Z,22.60
2018-07-17T22:45:12.237Z,22.60
2018-07-17T22:50:15.268Z,22.60
2018-07-17T22:55:18.329Z,22.60
2018-07-17T23:00:21.368Z,22.60
2018-07-17T23:05:24.429Z,22.50
2018-07-17T23:10:27.481Z,22.50
2018-07-17T23:15:30.546Z,22.40
2018-07-17T23:20:33.601Z,22.40
2018-07-17T23:25:36.653Z,22.30
2018-07-17T23:30:39.700Z,22.30
2018-07-17T23:35:42.743Z,22.20
2018-07-17T23:40:45.781Z,22.20
2018-07-17T23:45:48.820Z,22.10
2018-07-17T23:50:51.868Z,22.10
2018-07-17T23:55:54.901Z,22.10
